createdAt,value
2022-07-29T00:00:47.790Z,17.7
2022-07-29T00:01:47.732Z,17.7
2022-07-29T00:02:47.730Z,17.7
2022-07-29T00:03:47.986Z,17.7
2022-07-29T00:04:47.683Z,17.7
2022-07-29T00:05:47.954Z,17.7
2022-07-29T00:06:48.238Z,17.7
2022-07-29T00:07:48.047Z,17.7
2022-07-29T00:08:47.771Z,17.7
2022-07-29T00:09:51.415Z,17.6
2022-07-29T00:10:47.860Z,17.6
2022-07-29T00:11:47.834Z,17.6
2022-07-29T00:12:47.701Z,17.6
2022-07-29T00:13:50.828Z,17.6
2022-07-29T00:14:47.774Z,17.6
2022-07-29T00:15:47.960Z,17.5
2022-07-29T00:16:48.321Z,17.5
2022-07-29T00:17:47.846Z,17.5
2022-07-29T00:18:48.122Z,17.5
2022-07-29T00:19:47.726Z,17.5
2022-07-29T00:20:47.860Z,17.5
2022-07-29T00:21:47.909Z,17.5
2022-07-29T00:22:48.104Z,17.5
2022-07-29T00:23:47.741Z,17.5
2022-07-29T00:24:47.984Z,17.4
2022-07-29T00:25:48.406Z,17.5
2022-07-29T00:26:47.746Z,17.4
2022-07-29T00:27:47.816Z,17.4
2022-07-29T00:28:48.089Z,17.4
2022-07-29T00:29:47.798Z,17.4
2022-07-29T00:30:47.740Z,17.4
2022-07-29T00:31:48.170Z,17.4
2022-07-29T00:32:48.441Z,17.4
2022-07-29T00:33:47.710Z,17.4
2022-07-29T00:34:47.705Z,17.3
2022-07-29T00:35:47.729Z,17.3
2022-07-29T00:36:47.747Z,17.3
2022-07-29T00:37:47.732Z,17.3
2022-07-29T00:38:47.745Z,17.3
2022-07-29T00:39:47.720Z,17.3
2022-07-29T00:40:48.064Z,17.3
2022-07-29T00:41:47.735Z,17.3
2022-07-29T00:42:47.733Z,17.2
2022-07-29T00:43:47.737Z,17.2
2022-07-29T00:44:47.707Z,17.2
2022-07-29T00:45:47.731Z,17.2
2022-07-29T00:46:47.799Z,17.2
2022-07-29T00:47:47.730Z,17.2
2022-07-29T00:48:47.798Z,17.2
2022-07-29T00:49:47.722Z,17.2
2022-07-29T00:50:47.704Z,17.2
2022-07-29T00:51:47.735Z,17.2
2022-07-29T00:52:47.725Z,17.2
2022-07-29T00:53:47.699Z,17
2022-07-29T00:54:47.732Z,17
2022-07-29T00:55:47.722Z,17
2022-07-29T00:56:47.740Z,17
2022-07-29T00:57:47.722Z,17
2022-07-29T00:58:47.704Z,17
2022-07-29T00:59:47.700Z,17
2022-07-29T01:00:47.774Z,17
2022-07-29T01:01:47.816Z,17
2022-07-29T01:02:47.726Z,17
2022-07-29T01:03:47.730Z,17
2022-07-29T01:04:47.724Z,17
2022-07-29T01:05:48.605Z,17
2022-07-29T01:06:47.706Z,16.9
2022-07-29T01:07:47.729Z,16.9
2022-07-29T01:08:47.734Z,16.9
2022-07-29T01:09:47.735Z,16.9
2022-07-29T01:10:47.721Z,16.9
2022-07-29T01:11:47.696Z,16.9
2022-07-29T01:12:47.728Z,16.8
2022-07-29T01:13:47.725Z,16.9
2022-07-29T01:14:47.728Z,16.8
2022-07-29T01:15:49.060Z,16.8
2022-07-29T01:16:47.787Z,16.8
2022-07-29T01:17:52.890Z,16.8
2022-07-29T01:18:47.720Z,16.8
2022-07-29T01:19:47.700Z,16.8
2022-07-29T01:20:47.729Z,16.8
2022-07-29T01:21:47.721Z,16.8
2022-07-29T01:22:47.723Z,16.8
2022-07-29T01:23:47.729Z,16.8
2022-07-29T01:24:47.730Z,16.7
2022-07-29T01:25:50.679Z,16.8
2022-07-29T01:26:47.725Z,16.8
2022-07-29T01:27:47.721Z,16.7
2022-07-29T01:28:47.704Z,16.7
2022-07-29T01:29:47.742Z,16.7
2022-07-29T01:30:48.001Z,16.7
2022-07-29T01:31:55.260Z,16.7
2022-07-29T01:32:47.726Z,16.6
2022-07-29T01:33:47.703Z,16.6
2022-07-29T01:34:47.747Z,16.6
2022-07-29T01:35:47.729Z,16.6
2022-07-29T01:36:47.745Z,16.6
2022-07-29T01:37:48.030Z,16.6
2022-07-29T01:38:47.710Z,16.6
2022-07-29T01:39:47.697Z,16.6
2022-07-29T01:40:47.706Z,16.6
2022-07-29T01:41:47.760Z,16.5
2022-07-29T01:42:47.731Z,16.5
2022-07-29T01:43:47.742Z,16.5
2022-07-29T01:44:47.688Z,16.5
2022-07-29T01:45:47.841Z,16.5
2022-07-29T01:46:47.721Z,16.5
2022-07-29T01:47:47.747Z,16.5
2022-07-29T01:48:48.290Z,16.5
2022-07-29T01:49:47.700Z,16.5
2022-07-29T01:50:47.815Z,16.5
2022-07-29T01:51:47.979Z,16.5
2022-07-29T01:52:48.066Z,16.5
2022-07-29T01:53:47.725Z,16.5
2022-07-29T01:54:47.727Z,16.5
2022-07-29T01:55:47.707Z,16.5
2022-07-29T01:56:47.724Z,16.5
2022-07-29T01:57:47.727Z,16.5
2022-07-29T01:58:47.728Z,16.4
2022-07-29T01:59:47.735Z,16.4
2022-07-29T02:00:47.706Z,16.4
2022-07-29T02:01:47.740Z,16.4
2022-07-29T02:02:47.724Z,16.4
2022-07-29T02:03:47.723Z,16.4
2022-07-29T02:04:47.744Z,16.4
2022-07-29T02:05:47.733Z,16.3
2022-07-29T02:06:47.704Z,16.3
2022-07-29T02:07:47.724Z,16.3
2022-07-29T02:08:47.726Z,16.3
2022-07-29T02:09:47.724Z,16.3
2022-07-29T02:10:47.732Z,16.3
2022-07-29T02:11:47.727Z,16.3
2022-07-29T02:12:48.565Z,16.3
2022-07-29T02:13:47.721Z,16.2
2022-07-29T02:14:47.727Z,16.3
2022-07-29T02:15:47.744Z,16.2
2022-07-29T02:16:47.721Z,16.2
2022-07-29T02:17:47.705Z,16.2
2022-07-29T02:18:47.685Z,16.2
2022-07-29T02:19:47.732Z,16.3
2022-07-29T02:20:47.685Z,16.3
2022-07-29T02:21:47.733Z,16.3
2022-07-29T02:22:47.687Z,16.3
2022-07-29T02:23:51.269Z,16.3
2022-07-29T02:24:47.705Z,16.3
2022-07-29T02:25:47.689Z,16.3
2022-07-29T02:26:47.700Z,16.3
2022-07-29T02:27:47.685Z,16.3
2022-07-29T02:28:47.725Z,16.2
2022-07-29T02:29:47.684Z,16.3
2022-07-29T02:30:47.758Z,16.3
2022-07-29T02:31:47.754Z,16.2
2022-07-29T02:32:47.922Z,16.2
2022-07-29T02:33:48.427Z,16.2
2022-07-29T02:34:48.512Z,16.2
2022-07-29T02:35:48.714Z,16.2
2022-07-29T02:36:49.541Z,16.2
2022-07-29T02:37:48.583Z,16.2
2022-07-29T02:38:48.527Z,16.2
2022-07-29T02:39:47.726Z,16.2
2022-07-29T02:40:47.746Z,16.2
2022-07-29T02:41:47.724Z,16.2
2022-07-29T02:42:47.736Z,16.2
2022-07-29T02:43:47.724Z,16.2
2022-07-29T02:44:47.729Z,16.2
2022-07-29T02:45:47.724Z,16.2
2022-07-29T02:46:47.741Z,16.2
2022-07-29T02:47:47.723Z,16.2
2022-07-29T02:48:47.763Z,16.2
2022-07-29T02:49:47.730Z,16.2
2022-07-29T02:50:47.719Z,16.2
2022-07-29T02:51:47.750Z,16.2
2022-07-29T02:52:47.701Z,16.1
2022-07-29T02:53:47.725Z,16.1
2022-07-29T02:54:47.745Z,16.1
2022-07-29T02:55:47.719Z,16.1
2022-07-29T02:56:47.750Z,16.1
2022-07-29T02:57:54.207Z,16.1
2022-07-29T02:58:47.724Z,16.1
2022-07-29T02:59:47.733Z,16.1
2022-07-29T03:00:47.689Z,16.1
2022-07-29T03:01:47.762Z,16.1
2022-07-29T03:02:47.734Z,16.1
2022-07-29T03:03:47.723Z,16.1
2022-07-29T03:04:47.870Z,16.1
2022-07-29T03:05:47.773Z,16.1
2022-07-29T03:06:48.061Z,16.1
2022-07-29T03:07:47.669Z,16.1
2022-07-29T03:08:47.949Z,16.1
2022-07-29T03:09:47.721Z,16.1
2022-07-29T03:10:47.843Z,16.1
2022-07-29T03:11:49.533Z,16.2
2022-07-29T03:12:47.720Z,16.1
2022-07-29T03:13:47.837Z,16.2
2022-07-29T03:14:47.694Z,16.2
2022-07-29T03:15:47.821Z,16.2
2022-07-29T03:16:47.673Z,16.2
2022-07-29T03:17:47.828Z,16.2
2022-07-29T03:18:47.751Z,16.2
2022-07-29T03:19:48.055Z,16.2
2022-07-29T03:20:48.410Z,16.2
2022-07-29T03:21:48.174Z,16.2
2022-07-29T03:22:47.845Z,16.2
2022-07-29T03:23:48.103Z,16.2
2022-07-29T03:24:47.817Z,16.2
2022-07-29T03:25:47.702Z,16.2
2022-07-29T03:26:47.761Z,16.2
2022-07-29T03:27:47.850Z,16.2
2022-07-29T03:28:48.099Z,16.1
2022-07-29T03:29:49.809Z,16.1
2022-07-29T03:30:47.738Z,16.1
2022-07-29T03:31:47.808Z,16.1
2022-07-29T03:32:47.701Z,16
2022-07-29T03:33:47.789Z,16
2022-07-29T03:34:47.732Z,16
2022-07-29T03:35:47.935Z,16
2022-07-29T03:36:48.114Z,16
2022-07-29T03:37:47.718Z,16
2022-07-29T03:38:47.871Z,15.9
2022-07-29T03:39:47.699Z,15.9
2022-07-29T03:40:47.724Z,15.9
2022-07-29T03:41:47.761Z,15.9
2022-07-29T03:42:47.746Z,15.9
2022-07-29T03:43:48.993Z,15.9
2022-07-29T03:44:47.974Z,15.9
2022-07-29T03:45:47.720Z,15.9
2022-07-29T03:46:47.779Z,15.9
2022-07-29T03:47:51.262Z,15.9
2022-07-29T03:48:47.817Z,15.9
2022-07-29T03:49:47.731Z,15.9
2022-07-29T03:50:47.689Z,15.9
2022-07-29T03:51:47.753Z,15.9
2022-07-29T03:52:47.715Z,15.9
2022-07-29T03:53:47.748Z,15.9
2022-07-29T03:54:47.720Z,15.9
2022-07-29T03:55:47.710Z,16
2022-07-29T03:56:47.736Z,15.9
2022-07-29T03:57:47.717Z,15.9
2022-07-29T03:58:47.732Z,16
2022-07-29T03:59:47.716Z,16
2022-07-29T04:00:47.716Z,16
2022-07-29T04:01:47.780Z,16
2022-07-29T04:02:47.727Z,16
2022-07-29T04:03:47.746Z,16.1
2022-07-29T04:04:47.720Z,16.1
2022-07-29T04:05:47.730Z,16.1
2022-07-29T04:06:48.278Z,16.1
2022-07-29T04:07:47.705Z,16.1
2022-07-29T04:08:47.705Z,16.1
2022-07-29T04:09:47.749Z,16.2
2022-07-29T04:10:47.720Z,16.2
2022-07-29T04:11:57.165Z,16.2
2022-07-29T04:12:47.721Z,16.2
2022-07-29T04:13:48.006Z,16.2
2022-07-29T04:14:47.746Z,16.2
2022-07-29T04:15:47.746Z,16.2
2022-07-29T04:16:47.721Z,16.1
2022-07-29T04:17:47.717Z,16.2
2022-07-29T04:18:47.701Z,16.1
2022-07-29T04:19:47.736Z,16.1
2022-07-29T04:20:47.776Z,16.2
2022-07-29T04:21:47.717Z,16.2
2022-07-29T04:22:47.719Z,16.2
2022-07-29T04:23:53.033Z,16.2
2022-07-29T04:24:47.726Z,16.2
2022-07-29T04:25:47.726Z,16.2
2022-07-29T04:26:47.722Z,16.2
2022-07-29T04:27:47.724Z,16.2
2022-07-29T04:28:47.719Z,16.2
2022-07-29T04:29:56.448Z,16.3
2022-07-29T04:30:47.774Z,16.3
2022-07-29T04:31:47.768Z,16.3
2022-07-29T04:32:47.724Z,16.3
2022-07-29T04:33:47.863Z,16.3
2022-07-29T04:34:47.693Z,16.4
2022-07-29T04:35:49.719Z,16.4
2022-07-29T04:36:47.707Z,16.4
2022-07-29T04:37:47.718Z,16.4
2022-07-29T04:38:47.722Z,16.4
2022-07-29T04:39:47.721Z,16.5
2022-07-29T04:40:48.020Z,16.5
2022-07-29T04:41:47.720Z,16.5
2022-07-29T04:42:47.995Z,16.5
2022-07-29T04:43:47.706Z,16.5
2022-07-29T04:44:47.735Z,16.5
2022-07-29T04:45:47.715Z,16.6
2022-07-29T04:46:47.751Z,16.6
2022-07-29T04:47:47.727Z,16.6
2022-07-29T04:48:47.761Z,16.6
2022-07-29T04:49:47.719Z,16.7
2022-07-29T04:50:47.673Z,16.7
2022-07-29T04:51:47.701Z,16.7
2022-07-29T04:52:47.735Z,16.7
2022-07-29T04:53:47.732Z,16.7
2022-07-29T04:54:47.877Z,16.7
2022-07-29T04:55:47.979Z,16.7
2022-07-29T04:56:48.085Z,16.8
2022-07-29T04:57:47.727Z,16.8
2022-07-29T04:58:47.853Z,16.8
2022-07-29T04:59:48.038Z,16.8
2022-07-29T05:00:47.701Z,16.9
2022-07-29T05:01:47.809Z,16.9
2022-07-29T05:02:47.935Z,16.9
2022-07-29T05:03:47.717Z,16.9
2022-07-29T05:04:47.762Z,16.9
2022-07-29T05:05:47.778Z,17
2022-07-29T05:06:48.331Z,17
2022-07-29T05:07:48.351Z,17
2022-07-29T05:08:48.321Z,17
2022-07-29T05:09:48.388Z,17
2022-07-29T05:10:48.466Z,17.2
2022-07-29T05:11:48.339Z,17.2
2022-07-29T05:12:48.332Z,17.2
2022-07-29T05:13:47.761Z,17.2
2022-07-29T05:14:47.789Z,17.2
2022-07-29T05:15:47.845Z,17.3
2022-07-29T05:16:47.788Z,17.3
2022-07-29T05:17:47.812Z,17.3
2022-07-29T05:18:47.783Z,17.3
2022-07-29T05:19:47.778Z,17.3
2022-07-29T05:20:47.815Z,17.4
2022-07-29T05:21:47.769Z,17.4
2022-07-29T05:22:47.814Z,17.4
2022-07-29T05:23:47.683Z,17.4
2022-07-29T05:24:47.790Z,17.4
2022-07-29T05:25:47.691Z,17.4
2022-07-29T05:26:47.686Z,17.5
2022-07-29T05:27:47.689Z,17.5
2022-07-29T05:28:47.683Z,17.5
2022-07-29T05:29:47.686Z,17.5
2022-07-29T05:30:47.833Z,17.5
2022-07-29T05:31:47.811Z,17.5
2022-07-29T05:32:48.888Z,17.5
2022-07-29T05:33:48.333Z,17.5
2022-07-29T05:34:52.326Z,17.5
2022-07-29T05:35:48.544Z,17.5
2022-07-29T05:36:48.642Z,17.5
2022-07-29T05:37:48.788Z,17.6
2022-07-29T05:38:48.458Z,17.5
2022-07-29T05:39:49.210Z,17.6
2022-07-29T05:40:48.121Z,17.6
2022-07-29T05:41:51.813Z,17.6
2022-07-29T05:42:47.997Z,17.6
2022-07-29T05:43:47.777Z,17.6
2022-07-29T05:44:47.698Z,17.6
2022-07-29T05:45:49.374Z,17.6
2022-07-29T05:46:47.953Z,17.6
2022-07-29T05:47:47.704Z,17.6
2022-07-29T05:48:48.012Z,17.6
2022-07-29T05:49:47.721Z,17.6
2022-07-29T05:50:47.861Z,17.6
2022-07-29T05:51:48.137Z,17.6
2022-07-29T05:52:47.933Z,17.7
2022-07-29T05:53:47.733Z,17.7
2022-07-29T05:54:47.719Z,17.7
2022-07-29T05:55:47.760Z,17.7
2022-07-29T05:56:47.749Z,17.7
2022-07-29T05:57:47.728Z,17.7
2022-07-29T05:58:47.712Z,17.7
2022-07-29T05:59:47.738Z,17.7
2022-07-29T06:00:47.692Z,17.8
2022-07-29T06:01:47.779Z,17.8
2022-07-29T06:02:47.720Z,17.8
2022-07-29T06:03:47.727Z,17.9
2022-07-29T06:04:47.874Z,17.9
2022-07-29T06:05:47.724Z,17.9
2022-07-29T06:06:47.721Z,17.9
2022-07-29T06:07:50.634Z,18
2022-07-29T06:08:47.719Z,18
2022-07-29T06:09:47.741Z,18
2022-07-29T06:10:47.728Z,18.1
2022-07-29T06:11:47.712Z,18.1
2022-07-29T06:12:47.725Z,18.1
2022-07-29T06:13:47.717Z,18.1
2022-07-29T06:14:50.900Z,18.1
2022-07-29T06:15:47.765Z,18.2
2022-07-29T06:16:47.797Z,18.2
2022-07-29T06:17:59.471Z,18.2
2022-07-29T06:18:47.723Z,18.3
2022-07-29T06:19:47.776Z,18.3
2022-07-29T06:20:47.715Z,18.4
2022-07-29T06:21:47.707Z,18.5
2022-07-29T06:22:47.709Z,18.7
2022-07-29T06:23:47.721Z,18.7
2022-07-29T06:24:47.724Z,18.8
2022-07-29T06:25:47.729Z,18.8
2022-07-29T06:26:47.736Z,18.8
2022-07-29T06:27:47.741Z,18.9
2022-07-29T06:28:47.719Z,18.9
2022-07-29T06:29:47.686Z,19
2022-07-29T06:30:47.776Z,19.1
2022-07-29T06:31:47.718Z,19.1
2022-07-29T06:32:47.826Z,19.1
2022-07-29T06:33:47.750Z,19.2
2022-07-29T06:34:48.833Z,19.2
2022-07-29T06:35:53.734Z,19.3
2022-07-29T06:36:47.683Z,19.3
2022-07-29T06:37:47.836Z,19.3
2022-07-29T06:38:50.575Z,19.4
2022-07-29T06:39:47.777Z,19.4
2022-07-29T06:40:47.775Z,19.5
2022-07-29T06:41:48.062Z,19.5
2022-07-29T06:42:48.597Z,19.5
2022-07-29T06:43:50.975Z,19.7
2022-07-29T06:44:48.029Z,19.7
2022-07-29T06:45:47.776Z,19.8
2022-07-29T06:46:47.707Z,19.8
2022-07-29T06:47:47.723Z,19.9
2022-07-29T06:48:47.788Z,19.9
2022-07-29T06:49:47.914Z,20
2022-07-29T06:50:47.721Z,20
2022-07-29T06:51:47.727Z,20.1
2022-07-29T06:52:47.750Z,20.2
2022-07-29T06:53:58.712Z,20.2
2022-07-29T06:54:47.736Z,20.2
2022-07-29T06:55:47.721Z,20.2
2022-07-29T06:56:47.730Z,20.2
2022-07-29T06:57:47.753Z,20.2
2022-07-29T06:58:47.723Z,20.2
2022-07-29T06:59:47.760Z,20.3
2022-07-29T07:00:47.779Z,20.2
2022-07-29T07:01:47.737Z,20.3
2022-07-29T07:02:47.836Z,20.2
2022-07-29T07:03:47.721Z,20.2
2022-07-29T07:04:47.727Z,20.2
2022-07-29T07:05:47.720Z,20.2
2022-07-29T07:06:47.728Z,20.2
2022-07-29T07:07:47.723Z,20.2
2022-07-29T07:08:47.724Z,20.2
2022-07-29T07:09:47.704Z,20.2
2022-07-29T07:10:47.741Z,20.1
2022-07-29T07:11:49.596Z,20.1
2022-07-29T07:12:47.729Z,20.1
2022-07-29T07:13:47.729Z,20.1
2022-07-29T07:14:47.706Z,20.1
2022-07-29T07:15:47.696Z,20.1
2022-07-29T07:16:47.788Z,20.2
2022-07-29T07:17:47.727Z,20.2
2022-07-29T07:18:47.731Z,20.2
2022-07-29T07:19:47.730Z,20.2
2022-07-29T07:20:47.726Z,20.2
2022-07-29T07:21:47.727Z,20.3
2022-07-29T07:22:47.719Z,20.3
2022-07-29T07:23:47.766Z,20.5
2022-07-29T07:24:47.732Z,20.5
2022-07-29T07:25:47.731Z,20.5
2022-07-29T07:26:47.707Z,20.6
2022-07-29T07:27:47.722Z,20.6
2022-07-29T07:28:47.728Z,20.7
2022-07-29T07:29:47.742Z,20.7
2022-07-29T07:30:47.705Z,20.8
2022-07-29T07:31:47.774Z,20.9
2022-07-29T07:32:47.723Z,20.9
2022-07-29T07:33:47.927Z,21
2022-07-29T07:34:47.693Z,21.2
2022-07-29T07:35:47.695Z,21.3
2022-07-29T07:36:47.764Z,21.4
2022-07-29T07:37:47.719Z,21.4
2022-07-29T07:38:47.718Z,21.5
2022-07-29T07:39:47.720Z,21.6
2022-07-29T07:40:47.748Z,21.8
2022-07-29T07:41:47.716Z,21.8
2022-07-29T07:42:47.721Z,21.9
2022-07-29T07:43:47.719Z,21.9
2022-07-29T07:45:11.899Z,22
2022-07-29T07:45:47.831Z,22
2022-07-29T07:46:47.765Z,22
2022-07-29T07:47:47.696Z,22.1
2022-07-29T07:48:47.754Z,22.1
2022-07-29T07:49:47.706Z,22.1
2022-07-29T07:50:47.751Z,22.1
2022-07-29T07:51:50.442Z,22.1
2022-07-29T07:52:47.729Z,22.1
2022-07-29T07:53:47.930Z,22.1
2022-07-29T07:54:47.701Z,22.1
2022-07-29T07:56:09.175Z,22.1
2022-07-29T07:56:47.725Z,22.3
2022-07-29T07:57:47.720Z,22.3
2022-07-29T07:58:47.716Z,22.3
2022-07-29T07:59:47.718Z,22.3
2022-07-29T08:00:47.814Z,22.3
2022-07-29T08:01:55.312Z,22.3
2022-07-29T08:02:48.121Z,22.3
2022-07-29T08:03:47.699Z,22.3
2022-07-29T08:04:48.014Z,22.3
2022-07-29T08:05:47.729Z,22.3
2022-07-29T08:06:47.691Z,22.1
2022-07-29T08:07:47.957Z,22.1
2022-07-29T08:08:47.881Z,22.3
2022-07-29T08:09:47.988Z,22.3
2022-07-29T08:10:48.254Z,22.3
2022-07-29T08:11:52.104Z,22.3
2022-07-29T08:12:48.063Z,22.3
2022-07-29T08:13:48.191Z,22.3
2022-07-29T08:14:48.406Z,22.3
2022-07-29T08:15:47.830Z,22.3
2022-07-29T08:16:47.805Z,22.3
2022-07-29T08:17:48.021Z,22.4
2022-07-29T08:18:47.718Z,22.4
2022-07-29T08:19:47.717Z,22.4
2022-07-29T08:20:47.817Z,22.5
2022-07-29T08:21:47.754Z,22.5
2022-07-29T08:22:47.773Z,22.5
2022-07-29T08:23:50.499Z,22.5
2022-07-29T08:24:47.822Z,22.6
2022-07-29T08:25:49.999Z,22.6
2022-07-29T08:26:47.883Z,22.6
2022-07-29T08:27:48.185Z,22.7
2022-07-29T08:28:47.682Z,22.7
2022-07-29T08:29:47.729Z,22.9
2022-07-29T08:30:47.946Z,22.9
2022-07-29T08:31:47.804Z,22.9
2022-07-29T08:32:54.417Z,22.9
2022-07-29T08:33:47.714Z,23
2022-07-29T08:34:47.683Z,23
2022-07-29T08:35:47.727Z,23
2022-07-29T08:36:51.089Z,23
2022-07-29T08:37:47.715Z,23
2022-07-29T08:38:47.778Z,23
2022-07-29T08:39:47.963Z,23
2022-07-29T08:40:48.119Z,23
2022-07-29T08:41:56.672Z,22.9
2022-07-29T08:42:49.191Z,22.9
2022-07-29T08:43:47.702Z,22.9
2022-07-29T08:44:47.728Z,22.9
2022-07-29T08:45:48.538Z,22.9
2022-07-29T08:46:47.740Z,23
2022-07-29T08:47:47.725Z,23
2022-07-29T08:48:47.801Z,23
2022-07-29T08:49:47.878Z,23.1
2022-07-29T08:50:47.703Z,23.1
2022-07-29T08:51:49.338Z,23.1
2022-07-29T08:52:47.719Z,23.2
2022-07-29T08:53:47.707Z,23.2
2022-07-29T08:54:47.729Z,23.2
2022-07-29T08:55:47.813Z,23.4
2022-07-29T08:56:47.737Z,23.4
2022-07-29T08:57:51.056Z,23.4
2022-07-29T08:58:50.628Z,23.4
2022-07-29T08:59:47.706Z,23.4
2022-07-29T09:00:47.775Z,23.5
2022-07-29T09:01:47.891Z,23.6
2022-07-29T09:02:47.742Z,23.6
2022-07-29T09:03:47.749Z,23.8
2022-07-29T09:04:48.041Z,23.9
2022-07-29T09:05:48.342Z,23.9
2022-07-29T09:06:47.730Z,24
2022-07-29T09:07:47.785Z,24
2022-07-29T09:08:47.727Z,24.1
2022-07-29T09:09:47.718Z,24.3
2022-07-29T09:10:47.719Z,24.3
2022-07-29T09:11:47.939Z,24.4
2022-07-29T09:12:47.721Z,24.4
2022-07-29T09:13:47.729Z,24.4
2022-07-29T09:14:47.744Z,24.5
2022-07-29T09:15:47.733Z,24.5
2022-07-29T09:16:52.949Z,24.5
2022-07-29T09:17:47.818Z,24.5
2022-07-29T09:18:47.736Z,24.5
2022-07-29T09:19:47.741Z,24.5
2022-07-29T09:20:47.819Z,24.5
2022-07-29T09:21:47.703Z,24.5
2022-07-29T09:22:47.720Z,24.5
2022-07-29T09:23:47.737Z,24.5
2022-07-29T09:24:47.757Z,24.5
2022-07-29T09:25:47.726Z,24.4
2022-07-29T09:26:47.722Z,24.5
2022-07-29T09:27:47.725Z,24.4
2022-07-29T09:28:47.718Z,24.4
2022-07-29T09:29:47.737Z,24.4
2022-07-29T09:30:47.703Z,24.4
2022-07-29T09:31:47.842Z,24.4
2022-07-29T09:32:47.735Z,24.4
2022-07-29T09:33:47.730Z,24.3
2022-07-29T09:34:47.740Z,24.3
2022-07-29T09:35:56.341Z,24.3
2022-07-29T09:36:47.796Z,24.3
2022-07-29T09:37:47.723Z,24.3
2022-07-29T09:38:47.773Z,24.3
2022-07-29T09:39:47.782Z,24.3
2022-07-29T09:40:48.220Z,24.3
2022-07-29T09:41:47.771Z,24.3
2022-07-29T09:42:47.770Z,24.4
2022-07-29T09:43:47.798Z,24.4
2022-07-29T09:44:47.975Z,24.5
2022-07-29T09:45:48.071Z,24.5
2022-07-29T09:46:47.874Z,24.5
2022-07-29T09:47:48.154Z,24.7
2022-07-29T09:48:47.682Z,24.7
2022-07-29T09:49:47.814Z,24.7
2022-07-29T09:50:47.917Z,24.7
2022-07-29T09:51:48.031Z,24.8
2022-07-29T09:52:47.724Z,24.8
2022-07-29T09:53:47.739Z,24.8
2022-07-29T09:54:47.793Z,24.8
2022-07-29T09:55:47.726Z,24.8
2022-07-29T09:56:47.748Z,24.8
2022-07-29T09:57:47.726Z,24.8
2022-07-29T09:58:47.711Z,24.8
2022-07-29T09:59:50.023Z,24.8
2022-07-29T10:00:47.755Z,24.8
2022-07-29T10:01:47.735Z,24.8
2022-07-29T10:02:47.725Z,24.8
2022-07-29T10:03:47.783Z,24.8
2022-07-29T10:04:47.747Z,24.8
2022-07-29T10:05:47.711Z,24.8
2022-07-29T10:06:47.731Z,24.8
2022-07-29T10:07:51.851Z,24.8
2022-07-29T10:08:47.705Z,24.8
2022-07-29T10:09:47.721Z,24.8
2022-07-29T10:10:48.019Z,24.8
2022-07-29T10:11:48.127Z,24.9
2022-07-29T10:12:47.721Z,24.9
2022-07-29T10:13:47.721Z,25.1
2022-07-29T10:14:47.728Z,25.1
2022-07-29T10:15:47.779Z,25.2
2022-07-29T10:16:47.736Z,25.3
2022-07-29T10:17:47.916Z,25.3
2022-07-29T10:18:47.760Z,25.5
2022-07-29T10:19:47.738Z,25.5
2022-07-29T10:20:47.705Z,25.6
2022-07-29T10:21:47.734Z,25.6
2022-07-29T10:22:53.294Z,25.7
2022-07-29T10:23:47.731Z,25.9
2022-07-29T10:24:48.089Z,25.9
2022-07-29T10:25:47.722Z,26
2022-07-29T10:26:47.719Z,26.1
2022-07-29T10:27:47.723Z,26.3
2022-07-29T10:28:47.708Z,26.3
2022-07-29T10:29:47.739Z,26.4
2022-07-29T10:30:47.724Z,26.6
2022-07-29T10:31:47.755Z,26.7
2022-07-29T10:32:50.132Z,26.7
2022-07-29T10:33:47.729Z,26.7
2022-07-29T10:34:47.741Z,26.9
2022-07-29T10:35:47.731Z,26.9
2022-07-29T10:36:47.719Z,27
2022-07-29T10:37:47.707Z,27
2022-07-29T10:38:47.999Z,27
2022-07-29T10:39:49.824Z,27.1
2022-07-29T10:40:47.722Z,27.1
2022-07-29T10:41:47.754Z,27.1
2022-07-29T10:42:47.744Z,27.1
2022-07-29T10:43:47.688Z,27.1
2022-07-29T10:44:47.734Z,27.3
2022-07-29T10:45:47.743Z,27.3
2022-07-29T10:46:47.768Z,27.3
2022-07-29T10:47:47.707Z,27.4
2022-07-29T10:48:47.758Z,27.4
2022-07-29T10:49:47.700Z,27.4
2022-07-29T10:50:48.195Z,27.4
2022-07-29T10:51:48.157Z,27.4
2022-07-29T10:52:48.412Z,27.4
2022-07-29T10:53:48.078Z,27.4
2022-07-29T10:54:48.157Z,27.4
2022-07-29T10:55:48.132Z,27.4
2022-07-29T10:56:48.181Z,27.6
2022-07-29T10:57:52.801Z,27.6
2022-07-29T10:58:49.905Z,27.6
2022-07-29T10:59:47.722Z,27.6
2022-07-29T11:00:47.693Z,27.6
2022-07-29T11:01:49.409Z,27.6
2022-07-29T11:02:47.832Z,27.4
2022-07-29T11:03:49.094Z,27.4
2022-07-29T11:04:48.612Z,27.4
2022-07-29T11:05:47.728Z,27.4
2022-07-29T11:06:48.010Z,27.4
2022-07-29T11:07:47.755Z,27.4
2022-07-29T11:08:47.996Z,27.4
2022-07-29T11:09:48.355Z,27.6
2022-07-29T11:10:48.076Z,27.6
2022-07-29T11:11:51.469Z,27.6
2022-07-29T11:12:47.826Z,27.7
2022-07-29T11:13:48.915Z,27.7
2022-07-29T11:14:47.742Z,27.7
2022-07-29T11:15:48.160Z,27.9
2022-07-29T11:16:47.874Z,27.9
2022-07-29T11:17:52.241Z,27.9
2022-07-29T11:18:47.694Z,28
2022-07-29T11:19:52.155Z,28
2022-07-29T11:20:47.884Z,28
2022-07-29T11:21:48.943Z,28
2022-07-29T11:22:47.722Z,28.1
2022-07-29T11:23:47.720Z,28.1
2022-07-29T11:24:49.301Z,28.1
2022-07-29T11:25:50.548Z,28.1
2022-07-29T11:26:47.733Z,28.1
2022-07-29T11:27:48.044Z,28.1
2022-07-29T11:28:47.821Z,28.1
2022-07-29T11:29:47.673Z,28.3
2022-07-29T11:30:47.829Z,28.3
2022-07-29T11:31:47.746Z,28.3
2022-07-29T11:32:48.469Z,28.3
2022-07-29T11:33:54.940Z,28.3
2022-07-29T11:34:47.728Z,28.3
2022-07-29T11:36:00.674Z,28.3
2022-07-29T11:36:47.688Z,28.1
2022-07-29T11:37:50.764Z,28.1
2022-07-29T11:38:47.670Z,28.1
2022-07-29T11:39:47.830Z,28.1
2022-07-29T11:40:47.690Z,28.1
2022-07-29T11:41:47.830Z,28.1
2022-07-29T11:42:48.344Z,28.3
2022-07-29T11:43:47.712Z,28.3
2022-07-29T11:44:47.720Z,28.3
2022-07-29T11:45:47.712Z,28.1
2022-07-29T11:46:47.730Z,28.1
2022-07-29T11:47:47.768Z,28.1
2022-07-29T11:48:47.788Z,28.1
2022-07-29T11:49:48.226Z,28.1
2022-07-29T11:50:48.277Z,28.1
2022-07-29T11:51:48.138Z,28.1
2022-07-29T11:52:49.435Z,28
2022-07-29T11:53:47.702Z,28
2022-07-29T11:54:52.549Z,28
2022-07-29T11:55:50.745Z,28
2022-07-29T11:56:47.705Z,28
2022-07-29T11:57:47.726Z,28
2022-07-29T11:58:47.726Z,28
2022-07-29T11:59:47.725Z,28
2022-07-29T12:00:47.748Z,27.9
2022-07-29T12:01:47.688Z,27.9
2022-07-29T12:02:48.410Z,27.9
2022-07-29T12:03:47.721Z,27.9
2022-07-29T12:04:47.715Z,27.7
2022-07-29T12:05:48.000Z,27.7
2022-07-29T12:06:48.771Z,27.6
2022-07-29T12:07:47.735Z,27.4
2022-07-29T12:08:47.728Z,27.4
2022-07-29T12:09:47.731Z,27.3
2022-07-29T12:10:47.701Z,27.3
2022-07-29T12:11:47.705Z,27.1
2022-07-29T12:12:47.742Z,27.1
2022-07-29T12:13:47.727Z,27.1
2022-07-29T12:14:47.720Z,27.1
2022-07-29T12:15:47.843Z,27.1
2022-07-29T12:16:47.787Z,27.1
2022-07-29T12:17:47.708Z,27
2022-07-29T12:18:47.704Z,27
2022-07-29T12:19:47.718Z,27
2022-07-29T12:20:47.699Z,27
2022-07-29T12:21:51.005Z,26.9
2022-07-29T12:22:47.720Z,26.9
2022-07-29T12:23:47.727Z,26.9
2022-07-29T12:24:47.891Z,26.7
2022-07-29T12:25:49.771Z,26.7
2022-07-29T12:26:47.690Z,26.7
2022-07-29T12:27:47.730Z,26.7
2022-07-29T12:28:47.719Z,26.7
2022-07-29T12:29:48.882Z,26.7
2022-07-29T12:30:48.009Z,26.7
2022-07-29T12:31:47.746Z,26.7
2022-07-29T12:32:47.686Z,26.7
2022-07-29T12:33:47.731Z,26.7
2022-07-29T12:34:47.682Z,26.7
2022-07-29T12:35:54.039Z,26.7
2022-07-29T12:36:47.754Z,26.7
2022-07-29T12:37:47.724Z,26.9
2022-07-29T12:38:47.683Z,26.9
2022-07-29T12:39:47.689Z,26.9
2022-07-29T12:40:47.704Z,26.9
2022-07-29T12:41:47.684Z,27
2022-07-29T12:42:47.777Z,26.9
2022-07-29T12:43:47.668Z,27
2022-07-29T12:44:48.001Z,27
2022-07-29T12:45:48.183Z,27
2022-07-29T12:46:48.592Z,27
2022-07-29T12:47:49.185Z,26.9
2022-07-29T12:48:47.716Z,26.9
2022-07-29T12:49:49.396Z,26.9
2022-07-29T12:50:47.994Z,26.9
2022-07-29T12:51:47.791Z,26.9
2022-07-29T12:52:47.723Z,26.9
2022-07-29T12:53:47.859Z,26.9
2022-07-29T12:54:48.075Z,26.7
2022-07-29T12:55:47.725Z,26.7
2022-07-29T12:56:47.972Z,26.6
2022-07-29T12:57:47.706Z,26.6
2022-07-29T12:58:51.068Z,26.4
2022-07-29T12:59:47.737Z,26.4
2022-07-29T13:00:47.766Z,26.4
2022-07-29T13:01:47.686Z,26.3
2022-07-29T13:02:47.797Z,26.3
2022-07-29T13:03:55.820Z,26.1
2022-07-29T13:04:47.720Z,26.1
2022-07-29T13:05:49.543Z,26
2022-07-29T13:06:49.595Z,26
2022-07-29T13:07:54.888Z,25.9
2022-07-29T13:08:47.687Z,25.9
2022-07-29T13:09:47.730Z,25.7
2022-07-29T13:10:47.719Z,25.9
2022-07-29T13:11:48.706Z,25.7
2022-07-29T13:12:47.718Z,25.7
2022-07-29T13:13:47.721Z,25.7
2022-07-29T13:14:47.705Z,25.9
2022-07-29T13:15:47.704Z,25.9
2022-07-29T13:16:47.792Z,25.9
2022-07-29T13:17:47.965Z,25.9
2022-07-29T13:18:47.692Z,25.9
2022-07-29T13:19:47.689Z,25.9
2022-07-29T13:20:47.837Z,25.9
2022-07-29T13:21:47.689Z,25.9
2022-07-29T13:22:47.693Z,26
2022-07-29T13:23:47.684Z,26
2022-07-29T13:24:47.945Z,26